createdAt,value
2018-12-08T00:00:37.904Z,7.50
2018-12-08T00:03:28.644Z,7.40
2018-12-08T00:06:18.413Z,8.83
2018-12-08T00:09:09.063Z,8.20
2018-12-08T00:11:59.386Z,9.40
2018-12-08T00:14:49.190Z,7.97
2018-12-08T00:17:39.314Z,8.37
2018-12-08T00:20:30.009Z,8.20
2018-12-08T00:23:19.815Z,7.60
2018-12-08T00:26:11.162Z,8.20
2018-12-08T00:29:01.656Z,7.70
2018-12-08T00:31:51.826Z,7.90
2018-12-08T00:34:41.810Z,7.83
2018-12-08T00:37:31.815Z,7.87
2018-12-08T00:40:21.724Z,8.00
2018-12-08T00:43:11.747Z,8.00
2018-12-08T00:46:01.630Z,8.90
2018-12-08T00:48:51.808Z,8.27
2018-12-08T00:51:42.794Z,8.10
2018-12-08T00:54:33.646Z,7.83
2018-12-08T00:57:23.478Z,8.00
2018-12-08T01:00:13.571Z,8.47
2018-12-08T01:03:03.579Z,8.13
2018-12-08T01:05:54.390Z,7.83
2018-12-08T01:08:44.525Z,8.33
2018-12-08T01:11:35.460Z,8.53
2018-12-08T01:14:26.442Z,8.37
2018-12-08T01:17:16.539Z,8.47
2018-12-08T01:20:09.272Z,8.87
2018-12-08T01:22:59.315Z,8.67
2018-12-08T01:25:49.249Z,7.93
2018-12-08T01:28:39.413Z,8.27
2018-12-08T01:31:29.291Z,8.23
2018-12-08T01:34:19.458Z,8.63
2018-12-08T01:37:09.397Z,8.30
2018-12-08T01:40:00.205Z,8.17
2018-12-08T01:42:57.140Z,8.57
2018-12-08T01:45:47.413Z,7.97
2018-12-08T01:48:39.223Z,9.23
2018-12-08T01:51:31.214Z,8.53
2018-12-08T01:54:22.082Z,8.57
2018-12-08T01:57:13.062Z,8.63
2018-12-08T02:00:03.145Z,8.50
2018-12-08T02:02:53.131Z,8.53
2018-12-08T02:05:42.908Z,8.20
2018-12-08T02:08:33.057Z,8.07
2018-12-08T02:11:25.158Z,8.03
2018-12-08T02:14:15.606Z,8.20
2018-12-08T02:17:06.431Z,8.23
2018-12-08T02:19:56.564Z,9.83
2018-12-08T02:22:48.411Z,7.93
2018-12-08T02:25:39.158Z,7.97
2018-12-08T02:28:29.038Z,8.13
2018-12-08T02:31:19.037Z,8.43
2018-12-08T02:34:08.703Z,8.60
2018-12-08T02:36:58.691Z,8.30
2018-12-08T02:39:48.706Z,8.83
2018-12-08T02:42:38.760Z,8.77
2018-12-08T02:45:28.567Z,8.40
2018-12-08T02:48:18.665Z,8.50
2018-12-08T02:51:08.581Z,8.87
2018-12-08T02:53:58.347Z,8.90
2018-12-08T02:56:48.207Z,8.00
2018-12-08T02:59:38.200Z,8.53
2018-12-08T03:02:28.240Z,7.83
2018-12-08T03:05:18.184Z,7.83
2018-12-08T03:08:10.090Z,8.33
2018-12-08T03:11:00.885Z,7.73
2018-12-08T03:13:50.835Z,8.03
2018-12-08T03:16:40.942Z,7.80
2018-12-08T03:19:30.753Z,8.07
2018-12-08T03:22:21.547Z,8.10
2018-12-08T03:25:11.685Z,7.50
2018-12-08T03:28:01.614Z,7.90
2018-12-08T03:30:52.556Z,7.80
2018-12-08T03:33:43.242Z,7.97
2018-12-08T03:36:33.096Z,7.90
2018-12-08T03:39:23.960Z,7.83
2018-12-08T03:42:13.902Z,8.23
2018-12-08T03:45:04.128Z,8.43
2018-12-08T03:47:54.083Z,7.90
2018-12-08T03:50:43.957Z,8.17
2018-12-08T03:53:33.980Z,8.33
2018-12-08T03:56:24.805Z,8.80
2018-12-08T03:59:15.789Z,8.80
2018-12-08T04:02:07.021Z,8.47
2018-12-08T04:04:57.436Z,9.07
2018-12-08T04:07:47.382Z,11.60
2018-12-08T04:10:37.183Z,8.70
2018-12-08T04:13:27.127Z,8.40
2018-12-08T04:16:18.108Z,8.47
2018-12-08T04:19:09.051Z,8.10
2018-12-08T04:21:59.796Z,8.43
2018-12-08T04:24:52.034Z,7.70
2018-12-08T04:27:42.799Z,7.97
2018-12-08T04:30:32.981Z,8.20
2018-12-08T04:33:23.800Z,8.73
2018-12-08T04:36:13.884Z,7.60
2018-12-08T04:39:05.312Z,7.30
2018-12-08T04:41:57.082Z,7.50
2018-12-08T04:44:48.770Z,7.60
2018-12-08T04:47:38.620Z,7.83
2018-12-08T04:50:29.622Z,7.77
2018-12-08T04:53:20.542Z,7.27
2018-12-08T04:56:11.473Z,7.57
2018-12-08T04:59:02.294Z,7.40
2018-12-08T05:01:52.125Z,7.60
2018-12-08T05:04:42.420Z,7.37
2018-12-08T05:07:32.974Z,7.60
2018-12-08T05:10:23.207Z,7.60
2018-12-08T05:13:13.170Z,8.03
2018-12-08T05:16:04.101Z,7.17
2018-12-08T05:18:54.615Z,7.17
2018-12-08T05:21:44.675Z,7.53
2018-12-08T05:24:35.393Z,7.17
2018-12-08T05:27:25.326Z,7.50
2018-12-08T05:30:15.429Z,7.10
2018-12-08T05:33:05.491Z,7.00
2018-12-08T05:35:55.413Z,7.10
2018-12-08T05:38:45.538Z,8.10
2018-12-08T05:41:35.225Z,7.00
2018-12-08T05:44:25.348Z,6.97
2018-12-08T05:47:15.398Z,7.10
2018-12-08T05:50:06.549Z,7.40
2018-12-08T05:52:56.253Z,7.20
2018-12-08T05:55:46.162Z,6.97
2018-12-08T05:58:36.083Z,7.63
2018-12-08T06:01:26.190Z,7.47
2018-12-08T06:04:16.018Z,7.73
2018-12-08T06:07:07.019Z,7.63
2018-12-08T06:09:57.123Z,7.80
2018-12-08T06:12:48.051Z,8.03
2018-12-08T06:15:37.844Z,7.60
2018-12-08T06:18:27.869Z,7.60
2018-12-08T06:21:17.713Z,7.63
2018-12-08T06:24:07.700Z,16.73
2018-12-08T06:27:10.025Z,10.27
2018-12-08T06:30:00.788Z,8.87
2018-12-08T06:32:51.751Z,7.50
2018-12-08T06:35:42.531Z,7.33
2018-12-08T06:38:32.409Z,6.87
2018-12-08T06:41:23.302Z,7.07
2018-12-08T06:44:13.411Z,7.90
2018-12-08T06:47:03.288Z,8.27
2018-12-08T06:49:53.257Z,8.17
2018-12-08T06:52:43.003Z,7.30
2018-12-08T06:55:32.867Z,7.37
2018-12-08T06:58:22.858Z,7.50
2018-12-08T07:01:12.949Z,7.50
2018-12-08T07:04:03.731Z,8.50
2018-12-08T07:06:53.751Z,7.83
2018-12-08T07:09:43.939Z,8.50
2018-12-08T07:12:33.992Z,7.50
2018-12-08T07:15:24.059Z,7.93
2018-12-08T07:18:14.922Z,7.60
2018-12-08T07:21:04.919Z,8.40
2018-12-08T07:23:54.967Z,8.10
2018-12-08T07:26:44.930Z,7.13
2018-12-08T07:29:34.806Z,7.30
2018-12-08T07:32:24.874Z,6.40
2018-12-08T07:35:14.924Z,6.57
2018-12-08T07:38:04.905Z,6.80
2018-12-08T07:40:54.920Z,7.00
2018-12-08T07:43:45.928Z,7.30
2018-12-08T07:46:36.661Z,7.57
2018-12-08T07:49:26.631Z,7.67
2018-12-08T07:52:16.442Z,7.80
2018-12-08T07:55:07.570Z,7.33
2018-12-08T07:57:59.430Z,8.23
2018-12-08T08:00:50.145Z,7.90
2018-12-08T08:03:41.112Z,8.27
2018-12-08T08:06:32.008Z,7.80
2018-12-08T08:09:21.881Z,7.63
2018-12-08T08:12:11.834Z,7.57
2018-12-08T08:15:01.691Z,7.67
2018-12-08T08:17:51.630Z,7.67
2018-12-08T08:20:41.384Z,8.20
2018-12-08T08:23:31.246Z,8.17
2018-12-08T08:26:22.276Z,8.60
2018-12-08T08:29:13.090Z,7.43
2018-12-08T08:32:03.903Z,7.50
2018-12-08T08:34:53.772Z,7.50
2018-12-08T08:37:43.800Z,7.47
2018-12-08T08:40:34.614Z,7.60
2018-12-08T08:43:24.809Z,8.13
2018-12-08T08:46:15.598Z,8.47
2018-12-08T08:49:06.269Z,8.30
2018-12-08T08:51:56.408Z,8.43
2018-12-08T08:54:46.346Z,8.47
2018-12-08T08:57:36.682Z,7.17
2018-12-08T09:00:27.554Z,7.30
2018-12-08T09:03:19.237Z,7.67
2018-12-08T09:06:09.298Z,7.90
2018-12-08T09:08:59.463Z,7.97
2018-12-08T09:11:50.413Z,7.67
2018-12-08T09:14:42.310Z,7.90
2018-12-08T09:17:33.145Z,8.17
2018-12-08T09:20:23.295Z,8.23
2018-12-08T09:23:14.046Z,7.90
2018-12-08T09:26:05.849Z,8.23
2018-12-08T09:28:55.600Z,7.83
2018-12-08T09:31:45.497Z,7.70
2018-12-08T09:34:36.480Z,7.90
2018-12-08T09:37:27.595Z,7.80
2018-12-08T09:40:18.278Z,7.80
2018-12-08T09:43:08.383Z,7.73
2018-12-08T09:45:59.035Z,7.20
2018-12-08T09:48:49.319Z,8.03
2018-12-08T09:51:39.262Z,7.70
2018-12-08T09:54:29.346Z,7.10
2018-12-08T09:57:20.111Z,7.03
2018-12-08T10:00:10.558Z,8.20
2018-12-08T10:03:00.397Z,8.67
2018-12-08T10:05:50.221Z,8.30
2018-12-08T10:08:40.327Z,8.00
2018-12-08T10:11:30.398Z,8.27
2018-12-08T10:14:20.271Z,8.40
2018-12-08T10:17:10.144Z,8.57
2018-12-08T10:19:59.810Z,7.37
2018-12-08T10:22:49.910Z,8.30
2018-12-08T10:25:40.650Z,9.17
2018-12-08T10:28:31.341Z,8.60
2018-12-08T10:31:21.162Z,8.20
2018-12-08T10:34:11.037Z,8.70
2018-12-08T10:37:00.793Z,8.53
2018-12-08T10:39:51.644Z,8.63
2018-12-08T10:42:41.752Z,8.63
2018-12-08T10:45:32.803Z,8.53
2018-12-08T10:48:25.410Z,8.13
2018-12-08T10:51:15.781Z,8.60
2018-12-08T10:54:07.554Z,8.37
2018-12-08T10:56:57.549Z,8.07
2018-12-08T10:59:47.485Z,8.40
2018-12-08T11:02:41.116Z,8.90
2018-12-08T11:05:31.303Z,8.67
2018-12-08T11:08:21.864Z,8.83
2018-12-08T11:11:13.059Z,8.63
2018-12-08T11:14:03.724Z,8.27
2018-12-08T11:16:54.502Z,7.53
2018-12-08T11:19:45.430Z,8.70
2018-12-08T11:22:36.119Z,7.70
2018-12-08T11:25:26.316Z,8.10
2018-12-08T11:28:15.944Z,8.23
2018-12-08T11:31:05.834Z,7.23
2018-12-08T11:33:55.798Z,7.97
2018-12-08T11:36:49.570Z,8.23
2018-12-08T11:39:37.612Z,8.33
2018-12-08T11:42:27.870Z,8.10
2018-12-08T11:45:18.811Z,8.90
2018-12-08T11:48:08.586Z,8.70
2018-12-08T11:50:58.501Z,8.73
2018-12-08T11:53:50.394Z,8.40
2018-12-08T11:56:40.242Z,8.23
2018-12-08T11:59:30.328Z,7.40
2018-12-08T12:02:20.289Z,7.67
2018-12-08T12:05:10.204Z,7.67
2018-12-08T12:08:00.171Z,8.40
2018-12-08T12:10:50.513Z,8.03
2018-12-08T12:13:41.167Z,8.40
2018-12-08T12:16:31.156Z,9.20
2018-12-08T12:19:21.058Z,8.70
2018-12-08T12:22:10.909Z,9.50
2018-12-08T12:25:01.356Z,9.97
2018-12-08T12:27:51.847Z,10.23
2018-12-08T12:30:41.843Z,8.47
2018-12-08T12:33:31.744Z,9.13
2018-12-08T12:36:21.642Z,9.57
2018-12-08T12:39:11.648Z,10.50
2018-12-08T12:42:04.433Z,9.63
2018-12-08T12:44:55.527Z,9.03
2018-12-08T12:47:45.428Z,9.93
2018-12-08T12:50:35.779Z,9.47
2018-12-08T12:53:26.478Z,10.00
2018-12-08T12:56:16.326Z,9.10
2018-12-08T12:59:06.380Z,10.13
2018-12-08T13:01:56.382Z,9.37
2018-12-08T13:04:46.291Z,8.70
2018-12-08T13:07:37.666Z,8.93
2018-12-08T13:10:28.238Z,9.30
2018-12-08T13:13:18.327Z,8.50
2018-12-08T13:16:08.157Z,9.23
2018-12-08T13:18:58.139Z,9.70
2018-12-08T13:21:47.875Z,9.20
2018-12-08T13:24:37.726Z,8.23
2018-12-08T13:27:27.451Z,8.53
2018-12-08T13:30:17.458Z,9.00
2018-12-08T13:33:07.055Z,9.73
2018-12-08T13:36:02.695Z,8.83
2018-12-08T13:38:53.253Z,9.50
2018-12-08T13:41:43.175Z,8.87
2018-12-08T13:44:37.631Z,9.70
2018-12-08T13:47:28.187Z,9.37
2018-12-08T13:50:18.155Z,10.07
2018-12-08T13:53:08.542Z,9.87
2018-12-08T13:55:59.300Z,10.70
2018-12-08T13:58:50.047Z,10.40
2018-12-08T14:01:39.910Z,10.80
2018-12-08T14:04:30.641Z,13.03
2018-12-08T14:07:21.534Z,13.13
2018-12-08T14:10:11.573Z,12.50
2018-12-08T14:13:01.250Z,12.97
2018-12-08T14:15:52.112Z,11.50
2018-12-08T14:18:41.954Z,12.30
2018-12-08T14:21:31.953Z,10.90
2018-12-08T14:24:21.984Z,11.83
2018-12-08T14:27:12.984Z,10.43
2018-12-08T14:30:03.419Z,10.73
2018-12-08T14:32:54.637Z,10.23
2018-12-08T14:35:44.702Z,10.73
2018-12-08T14:38:34.663Z,10.63
2018-12-08T14:41:25.374Z,10.67
2018-12-08T14:44:15.439Z,11.13
2018-12-08T14:47:05.277Z,11.37
2018-12-08T14:49:55.431Z,10.50
2018-12-08T14:52:45.348Z,11.47
2018-12-08T14:55:35.760Z,10.50
2018-12-08T14:58:26.399Z,10.80
2018-12-08T15:01:16.481Z,10.20
2018-12-08T15:04:07.071Z,10.40
2018-12-08T15:06:57.388Z,10.23
2018-12-08T15:09:47.108Z,10.67
2018-12-08T15:12:37.206Z,10.07
2018-12-08T15:15:27.220Z,10.63
2018-12-08T15:18:17.279Z,10.07
2018-12-08T15:21:07.142Z,10.57
2018-12-08T15:23:57.127Z,10.70
2018-12-08T15:26:46.996Z,10.57
2018-12-08T15:29:37.111Z,10.97
2018-12-08T15:32:27.859Z,10.87
2018-12-08T15:35:18.624Z,11.03
2018-12-08T15:38:08.962Z,11.60
2018-12-08T15:40:58.727Z,11.33
2018-12-08T15:43:48.635Z,11.03
2018-12-08T15:46:38.863Z,14.17
2018-12-08T15:49:29.367Z,13.40
2018-12-08T15:52:19.257Z,11.73
2018-12-08T15:55:09.221Z,11.03
2018-12-08T15:57:59.418Z,11.50
2018-12-08T16:00:50.235Z,10.90
2018-12-08T16:03:40.261Z,12.07
2018-12-08T16:06:30.475Z,17.23
2018-12-08T16:09:21.793Z,20.80
2018-12-08T16:12:11.813Z,13.33
2018-12-08T16:15:01.887Z,17.83
2018-12-08T16:17:52.668Z,17.97
2018-12-08T16:20:42.764Z,14.33
2018-12-08T16:23:32.683Z,15.20
2018-12-08T16:26:23.424Z,15.27
2018-12-08T16:29:14.506Z,14.27
2018-12-08T16:32:05.327Z,13.47
2018-12-08T16:34:55.206Z,15.03
2018-12-08T16:37:45.168Z,13.40
2018-12-08T16:40:35.039Z,13.57
2018-12-08T16:43:25.802Z,12.60
2018-12-08T16:46:16.978Z,13.07
2018-12-08T16:49:07.276Z,12.37
2018-12-08T16:51:57.197Z,12.43
2018-12-08T16:54:47.122Z,11.23
2018-12-08T16:57:39.009Z,11.07
2018-12-08T17:00:31.031Z,10.93
2018-12-08T17:03:20.942Z,11.33
2018-12-08T17:06:10.934Z,10.20
2018-12-08T17:09:00.583Z,10.50
2018-12-08T17:11:50.502Z,14.37
2018-12-08T17:14:40.454Z,15.43
2018-12-08T17:17:31.567Z,13.77
2018-12-08T17:20:21.509Z,12.07
2018-12-08T17:23:11.406Z,13.33
2018-12-08T17:26:01.428Z,13.27
2018-12-08T17:28:51.422Z,11.00
2018-12-08T17:31:41.175Z,10.50
2018-12-08T17:34:31.261Z,11.70
2018-12-08T17:37:22.122Z,12.30
2018-12-08T17:40:13.003Z,13.00
2018-12-08T17:43:02.928Z,11.90
2018-12-08T17:45:53.118Z,11.23
2018-12-08T17:48:43.796Z,10.77
2018-12-08T17:51:33.771Z,11.53
2018-12-08T17:54:23.583Z,11.00
2018-12-08T17:57:13.430Z,11.30
2018-12-08T18:00:03.410Z,12.77
2018-12-08T18:02:53.976Z,12.70
2018-12-08T18:05:44.108Z,12.00
2018-12-08T18:08:34.074Z,11.03
2018-12-08T18:11:23.871Z,11.13
2018-12-08T18:14:14.540Z,11.80
2018-12-08T18:17:04.467Z,12.53
2018-12-08T18:19:54.765Z,15.23
2018-12-08T18:22:44.813Z,15.37
2018-12-08T18:25:35.142Z,15.07
2018-12-08T18:28:24.948Z,15.10
2018-12-08T18:31:14.946Z,11.50
2018-12-08T18:34:04.643Z,13.57
2018-12-08T18:36:55.017Z,14.00
2018-12-08T18:39:45.454Z,12.30
2018-12-08T18:42:35.534Z,11.27
2018-12-08T18:45:25.286Z,12.63
2018-12-08T18:48:15.174Z,12.03
2018-12-08T18:51:05.115Z,14.20
2018-12-08T18:53:55.375Z,15.00
2018-12-08T18:56:45.318Z,17.00
2018-12-08T18:59:35.296Z,21.97
2018-12-08T19:02:25.359Z,22.83
2018-12-08T19:05:15.594Z,12.63
2018-12-08T19:08:06.182Z,13.50
2018-12-08T19:10:57.138Z,11.97
2018-12-08T19:13:47.030Z,16.23
2018-12-08T19:16:37.043Z,12.83
2018-12-08T19:19:27.132Z,12.07
2018-12-08T19:22:17.078Z,12.30
2018-12-08T19:25:07.622Z,12.87
2018-12-08T19:27:58.756Z,11.13
2018-12-08T19:30:48.739Z,11.70
2018-12-08T19:33:38.660Z,12.13
2018-12-08T19:36:28.401Z,11.70
2018-12-08T19:39:18.373Z,11.60
2018-12-08T19:42:08.434Z,13.50
2018-12-08T19:44:59.298Z,13.40
2018-12-08T19:47:49.975Z,13.33
2018-12-08T19:50:40.121Z,16.07
2018-12-08T19:53:30.902Z,13.83
2018-12-08T19:56:20.867Z,12.07
2018-12-08T19:59:11.597Z,11.27
2018-12-08T20:02:01.484Z,10.57
2018-12-08T20:04:51.616Z,11.60
2018-12-08T20:07:42.591Z,10.97
2018-12-08T20:10:33.279Z,12.07
2018-12-08T20:13:23.416Z,10.27
2018-12-08T20:16:13.357Z,10.80
2018-12-08T20:19:03.435Z,12.13
2018-12-08T20:21:54.279Z,12.63
2018-12-08T20:24:44.202Z,12.77
2018-12-08T20:27:34.140Z,11.03
2018-12-08T20:30:24.323Z,10.97
2018-12-08T20:33:14.169Z,13.60
2018-12-08T20:36:04.497Z,15.17
2018-12-08T20:38:55.102Z,13.60
2018-12-08T20:41:45.159Z,14.53
2018-12-08T20:44:34.844Z,15.37
2018-12-08T20:47:24.839Z,14.53
2018-12-08T20:50:14.868Z,12.13
2018-12-08T20:53:05.691Z,11.37
2018-12-08T20:55:55.552Z,11.40
2018-12-08T20:58:46.194Z,11.47
2018-12-08T21:01:36.580Z,16.17
2018-12-08T21:04:27.343Z,12.03
2018-12-08T21:07:17.407Z,11.23
2018-12-08T21:10:08.842Z,10.83
2018-12-08T21:12:59.448Z,10.83
2018-12-08T21:15:49.491Z,10.87
2018-12-08T21:18:40.107Z,10.57
2018-12-08T21:21:31.324Z,11.03
2018-12-08T21:24:21.862Z,10.97
2018-12-08T21:27:11.767Z,12.47
2018-12-08T21:30:01.693Z,10.50
2018-12-08T21:32:51.553Z,9.87
2018-12-08T21:35:41.498Z,11.77
2018-12-08T21:38:31.639Z,11.70
2018-12-08T21:41:22.351Z,18.37
2018-12-08T21:44:12.649Z,13.33
2018-12-08T21:47:02.651Z,11.30
2018-12-08T21:49:52.651Z,11.07
2018-12-08T21:52:42.490Z,11.43
2018-12-08T21:55:32.654Z,11.90
2018-12-08T21:58:22.438Z,11.60
2018-12-08T22:01:14.164Z,11.43
2018-12-08T22:04:04.605Z,10.67
2018-12-08T22:06:54.550Z,11.10
2018-12-08T22:09:45.023Z,11.40
2018-12-08T22:12:34.994Z,11.90
2018-12-08T22:15:25.683Z,12.37
2018-12-08T22:18:15.501Z,11.33
2018-12-08T22:21:05.424Z,11.73
2018-12-08T22:23:55.502Z,10.87
2018-12-08T22:26:45.487Z,11.60
2018-12-08T22:29:35.799Z,11.40
2018-12-08T22:32:26.399Z,11.47
2018-12-08T22:35:16.737Z,12.80
2018-12-08T22:38:06.632Z,11.07
2018-12-08T22:40:56.921Z,11.47
2018-12-08T22:43:47.024Z,10.17
2018-12-08T22:46:37.314Z,10.47
2018-12-08T22:49:28.199Z,10.57
2018-12-08T22:52:18.710Z,10.60
2018-12-08T22:55:09.112Z,10.30
2018-12-08T22:58:00.174Z,10.70
2018-12-08T23:00:51.378Z,10.77
2018-12-08T23:03:41.473Z,11.03
2018-12-08T23:06:32.203Z,11.87
2018-12-08T23:09:22.327Z,13.33
2018-12-08T23:12:13.266Z,10.63
2018-12-08T23:15:04.383Z,10.97
2018-12-08T23:17:54.962Z,11.37
2018-12-08T23:20:46.110Z,11.57
2018-12-08T23:23:36.996Z,11.63
2018-12-08T23:26:26.998Z,11.63
2018-12-08T23:29:17.078Z,12.10
2018-12-08T23:32:08.242Z,13.43
2018-12-08T23:34:59.018Z,12.87
2018-12-08T23:37:49.897Z,10.57
2018-12-08T23:40:40.158Z,10.07
2018-12-08T23:43:30.903Z,10.60
2018-12-08T23:46:20.673Z,10.30
2018-12-08T23:49:11.342Z,11.77
2018-12-08T23:52:02.394Z,12.67
2018-12-08T23:54:52.386Z,11.53
2018-12-08T23:57:43.303Z,12.50
